Blue Water Estates, Kentucky
Current Conditions -  °F | °C
As of 4:58 PM on Thursday 23 Oct 2014 (Local Time) from KHOP Reporting Station
Clear Clear  
Wind Chill: 61°   Ceiling: Unl
Heat Index: 61°   Visibility: 10mi
Dew Point: 42°   Wind: 3mph
Humidity: 50%   Direction: 340°NNW
Pressure: 30.13"   Gusts: NA
Location:  36.8031°N, 87.8159°W
Report Text: KHOP 232158Z AUTO 34003KT 10SM CLR 16/06 A3013 RMK AO2 SLP205 T01600056
Loading
Personal Weather Stations






























Interactive Weather Map
Tropical Storm Tracking
New forecast layout! Learn more

10-Day Weather Forecast

Advertisements
Track Severe Weather on mobile